Time;durP1;ratioP1;P1;durP2;ratioP2;P2;SDS_P1;SDS_P2;PMS_P1;PMS_P2;Temp;Humidity;BMP_temperature;BMP_pressure;BME280_temperature;BME280_humidity;BME280_pressure;Samples;Min_cycle;Max_cycle;Signal;HPM_P1;HPM_P2
2023/09/27 00:00:29;;;;;;;11.23;10.33;;;;;;;12.30;100.00;97448.63;5073255;28;20286;-61
2023/09/27 00:02:57;;;;;;;11.33;10.30;;;;;;;12.28;100.00;97443.53;4970744;28;20313;-61
2023/09/27 00:05:26;;;;;;;11.60;10.57;;;;;;;12.24;100.00;97442.25;5076609;28;20246;-62
2023/09/27 00:07:53;;;;;;;11.03;10.00;;;;;;;12.20;100.00;97442.81;5066680;28;21021;-63
2023/09/27 00:10:21;;;;;;;11.13;10.13;;;;;;;12.17;100.00;97444.03;5072339;28;20208;-62
2023/09/27 00:12:49;;;;;;;12.97;11.10;;;;;;;12.21;100.00;97429.38;5074515;28;20267;-61
2023/09/27 00:15:18;;;;;;;12.13;10.10;;;;;;;12.15;100.00;97438.09;5071550;28;20288;-62
2023/09/27 00:17:46;;;;;;;10.60;9.60;;;;;;;12.12;100.00;97436.63;5016143;28;20367;-62
2023/09/27 00:20:15;;;;;;;10.47;9.30;;;;;;;11.98;100.00;97418.88;5055683;28;20203;-61
2023/09/27 00:22:44;;;;;;;11.17;9.60;;;;;;;12.02;100.00;97438.75;5051233;28;20195;-63
2023/09/27 00:25:14;;;;;;;10.50;9.60;;;;;;;11.98;100.00;97434.81;5005958;28;22830;-62
2023/09/27 00:27:42;;;;;;;10.57;9.67;;;;;;;11.97;100.00;97433.97;5071939;28;20271;-61
2023/09/27 00:30:13;;;;;;;11.40;10.30;;;;;;;11.94;100.00;97439.66;5068426;28;20193;-60
2023/09/27 00:32:44;;;;;;;12.83;11.63;;;;;;;11.96;100.00;97439.47;5066703;28;20206;-61
2023/09/27 00:35:18;;;;;;;14.07;12.17;;;;;;;11.98;100.00;97442.78;4994880;28;20895;-59
2023/09/27 00:37:47;;;;;;;11.77;10.77;;;;;;;11.96;100.00;97436.81;5074784;28;20259;-60
2023/09/27 00:40:17;;;;;;;12.43;11.23;;;;;;;11.93;100.00;97439.81;5064299;28;20893;-57
2023/09/27 00:42:45;;;;;;;11.50;10.40;;;;;;;11.89;100.00;97439.38;5071174;28;20256;-56
2023/09/27 00:45:12;;;;;;;12.37;11.20;;;;;;;11.84;100.00;97434.63;5071295;28;20241;-59
2023/09/27 00:47:40;;;;;;;12.33;11.03;;;;;;;11.81;100.00;97432.34;5072692;28;20638;-57
2023/09/27 00:50:10;;;;;;;11.93;10.80;;;;;;;11.76;100.00;97429.44;5014578;28;20319;-60
2023/09/27 00:52:39;;;;;;;10.13;9.23;;;;;;;11.74;100.00;97428.78;5069233;28;20199;-60
2023/09/27 00:55:08;;;;;;;9.50;8.70;;;;;;;11.71;100.00;97427.31;5066392;28;20206;-59
2023/09/27 00:57:36;;;;;;;9.67;8.93;;;;;;;11.67;100.00;97425.25;5069957;28;20320;-60
2023/09/27 01:00:04;;;;;;;10.40;9.43;;;;;;;11.68;100.00;97421.56;5068781;28;20202;-58
2023/09/27 01:02:32;;;;;;;10.33;9.30;;;;;;;11.63;100.00;97423.97;5069987;28;20199;-61
2023/09/27 01:05:00;;;;;;;9.77;8.83;;;;;;;11.65;100.00;97413.97;5013048;28;20546;-60
2023/09/27 01:07:29;;;;;;;9.63;8.63;;;;;;;11.60;100.00;97408.41;5053488;28;20225;-58
2023/09/27 01:09:57;;;;;;;10.07;9.23;;;;;;;11.55;100.00;97417.75;5071817;28;20283;-59
2023/09/27 01:12:25;;;;;;;10.23;9.30;;;;;;;11.53;100.00;97422.38;5071947;28;20275;-59
2023/09/27 01:14:52;;;;;;;10.70;9.63;;;;;;;11.54;100.00;97421.38;5074797;28;20894;-61
2023/09/27 01:17:20;;;;;;;11.07;10.17;;;;;;;11.56;100.00;97431.81;5073745;28;20218;-59
2023/09/27 01:19:48;;;;;;;10.43;9.63;;;;;;;11.65;100.00;97427.25;5046366;28;20229;-60
2023/09/27 01:22:16;;;;;;;11.63;10.67;;;;;;;11.78;100.00;97427.41;5054690;28;20198;-59
2023/09/27 01:24:45;;;;;;;11.00;10.00;;;;;;;11.81;100.00;97424.38;5075161;28;20269;-60
2023/09/27 01:27:14;;;;;;;9.97;9.17;;;;;;;11.82;100.00;97420.72;5074335;28;20259;-60
2023/09/27 01:29:42;;;;;;;10.73;9.83;;;;;;;11.84;100.00;97412.56;5075263;28;20620;-60
2023/09/27 01:32:10;;;;;;;10.53;9.73;;;;;;;11.86;100.00;97418.53;5069977;28;20248;-59
2023/09/27 01:34:38;;;;;;;10.40;9.40;;;;;;;11.79;100.00;97413.13;5078452;28;20210;-61
2023/09/27 01:37:07;;;;;;;11.17;10.20;;;;;;;11.74;100.00;97415.53;5076550;28;20321;-60
2023/09/27 01:39:35;;;;;;;14.83;11.67;;;;;;;11.69;100.00;97412.59;5062575;28;20195;-58
2023/09/27 01:42:04;;;;;;;12.83;11.50;;;;;;;11.70;100.00;97411.59;5037226;28;20214;-57
2023/09/27 01:44:32;;;;;;;13.47;12.20;;;;;;;11.70;100.00;97409.75;5075075;28;20565;-61
2023/09/27 01:47:00;;;;;;;13.83;12.43;;;;;;;11.78;100.00;97414.13;5072488;28;20299;-61
2023/09/27 01:49:28;;;;;;;12.63;11.53;;;;;;;11.83;100.00;97425.00;5070075;28;20206;-61
2023/09/27 01:51:55;;;;;;;11.73;10.73;;;;;;;11.86;100.00;97418.53;5073775;28;20288;-60
2023/09/27 01:54:23;;;;;;;11.00;10.00;;;;;;;11.82;100.00;97418.06;5077251;28;20260;-59
2023/09/27 01:56:51;;;;;;;10.23;8.03;;;;;;;11.82;100.00;97420.72;5022238;28;20872;-61
2023/09/27 01:59:20;;;;;;;9.47;8.30;;;;;;;11.82;100.00;97420.72;5074142;28;20222;-60
2023/09/27 02:01:47;;;;;;;8.40;7.57;;;;;;;11.84;100.00;97420.53;5073026;28;20261;-59
2023/09/27 02:04:15;;;;;;;7.97;7.37;;;;;;;11.86;100.00;97423.84;5074473;28;20713;-60
2023/09/27 02:06:43;;;;;;;7.60;7.00;;;;;;;11.85;100.00;97423.00;5067938;28;20234;-59
2023/09/27 02:09:11;;;;;;;7.43;6.83;;;;;;;12.01;100.00;97415.88;5069605;28;20281;-56
2023/09/27 02:11:38;;;;;;;8.10;7.50;;;;;;;11.99;100.00;97421.31;5069921;28;20223;-59
2023/09/27 02:14:06;;;;;;;7.50;7.00;;;;;;;11.98;100.00;97417.03;5075926;28;20202;-57
2023/09/27 02:16:35;;;;;;;9.03;8.23;;;;;;;12.00;100.00;97409.72;4981725;28;20203;-59
2023/09/27 02:19:04;;;;;;;8.67;7.97;;;;;;;11.98;100.00;97413.56;5063282;28;20285;-60
2023/09/27 02:21:33;;;;;;;12.77;8.93;;;;;;;11.97;100.00;97404.75;4997996;28;21478;-61
2023/09/27 02:24:01;;;;;;;8.83;8.07;;;;;;;11.96;100.00;97412.94;5062709;28;20309;-59
2023/09/27 02:26:29;;;;;;;8.00;7.40;;;;;;;11.95;100.00;97404.13;5023850;28;20963;-61
2023/09/27 02:28:56;;;;;;;8.50;7.80;;;;;;;11.90;100.00;97400.38;4997577;28;20218;-58
2023/09/27 02:31:24;;;;;;;8.57;7.93;;;;;;;11.87;100.00;97415.66;5053239;28;20737;-61
2023/09/27 02:33:53;;;;;;;8.53;7.83;;;;;;;11.90;100.00;97411.00;5064994;28;20202;-61
2023/09/27 02:36:21;;;;;;;8.23;7.43;;;;;;;11.90;100.00;97405.69;5075264;28;20203;-58
2023/09/27 02:38:48;;;;;;;8.20;7.60;;;;;;;11.93;100.00;97414.09;5067042;28;20312;-62
2023/09/27 02:41:16;;;;;;;8.40;7.70;;;;;;;11.83;100.00;97411.75;5071099;28;20206;-60
2023/09/27 02:43:44;;;;;;;7.20;6.70;;;;;;;11.82;100.00;97409.28;5068334;28;20250;-61
2023/09/27 02:46:11;;;;;;;8.00;7.23;;;;;;;11.81;100.00;97405.78;5071240;28;20222;-60
2023/09/27 02:48:39;;;;;;;7.47;6.87;;;;;;;11.84;100.00;97413.38;4998862;28;20319;-59
2023/09/27 02:51:08;;;;;;;7.67;7.07;;;;;;;11.84;100.00;97409.94;5075322;28;20756;-60
2023/09/27 02:53:36;;;;;;;7.60;7.03;;;;;;;11.79;100.00;97407.81;5069259;28;20292;-60
2023/09/27 02:56:05;;;;;;;13.17;7.87;;;;;;;11.64;100.00;97399.06;5076028;28;20199;-62
2023/09/27 02:58:34;;;;;;;7.50;7.00;;;;;;;11.84;100.00;97417.88;5021333;28;20218;-58
2023/09/27 03:01:02;;;;;;;7.60;7.03;;;;;;;11.84;100.00;97416.03;5052775;28;20198;-61
2023/09/27 03:03:30;;;;;;;13.20;8.40;;;;;;;11.79;100.00;97421.09;5047059;28;20650;-57
2023/09/27 03:05:58;;;;;;;9.40;7.87;;;;;;;11.83;100.00;97432.16;5056607;28;20207;-61
2023/09/27 03:08:29;;;;;;;9.23;6.83;;;;;;;11.81;100.00;97427.03;5047575;28;20230;-62
2023/09/27 03:10:57;;;;;;;7.87;7.33;;;;;;;11.82;100.00;97427.88;5053427;28;20291;-58
2023/09/27 03:13:25;;;;;;;7.40;6.90;;;;;;;11.84;100.00;97425.84;5059839;28;20203;-60
2023/09/27 03:15:56;;;;;;;8.67;7.77;;;;;;;11.90;100.00;97419.78;5074675;28;20243;-59
2023/09/27 03:18:24;;;;;;;8.57;7.97;;;;;;;11.94;100.00;97428.22;4968724;28;20226;-61
2023/09/27 03:20:52;;;;;;;8.53;7.83;;;;;;;11.91;100.00;97420.59;5071022;28;20302;-59
2023/09/27 03:23:19;;;;;;;7.43;6.93;;;;;;;11.84;100.00;97429.31;5065037;28;20269;-60
2023/09/27 03:25:49;;;;;;;8.70;7.90;;;;;;;11.87;100.00;97436.91;5073363;28;20214;-59
2023/09/27 03:28:17;;;;;;;9.07;8.17;;;;;;;11.79;100.00;97454.78;5065730;28;20230;-59
2023/09/27 03:30:45;;;;;;;7.27;6.67;;;;;;;11.82;100.00;97465.84;5071964;28;20234;-59
2023/09/27 03:33:12;;;;;;;7.07;6.67;;;;;;;11.80;100.00;97461.75;5023823;28;20857;-60
2023/09/27 03:35:41;;;;;;;8.27;7.67;;;;;;;11.85;100.00;97457.50;5068488;28;20253;-61
2023/09/27 03:38:09;;;;;;;7.47;6.97;;;;;;;11.84;100.00;97463.03;5068628;28;20206;-61
2023/09/27 03:40:40;;;;;;;9.20;7.57;;;;;;;11.78;100.00;97469.06;5067920;28;20217;-61
2023/09/27 03:43:09;;;;;;;6.07;5.67;;;;;;;11.79;100.00;97462.75;5008697;28;20636;-61
2023/09/27 03:45:37;;;;;;;7.30;6.60;;;;;;;11.68;100.00;97454.22;5075264;28;20276;-59
2023/09/27 03:48:05;;;;;;;8.53;7.07;;;;;;;11.72;100.00;97454.69;5073249;28;20909;-60
2023/09/27 03:50:33;;;;;;;6.67;6.27;;;;;;;11.70;100.00;97454.88;5073848;28;20467;-60
2023/09/27 03:53:01;;;;;;;8.00;7.50;;;;;;;11.65;100.00;97459.09;4966362;28;20210;-60
2023/09/27 03:55:29;;;;;;;7.63;7.13;;;;;;;11.63;100.00;97459.28;5004346;28;20503;-61
2023/09/27 03:57:56;;;;;;;7.93;7.23;;;;;;;11.70;100.00;97457.53;5074631;28;20526;-60
2023/09/27 04:00:26;;;;;;;7.97;7.37;;;;;;;11.70;100.00;97446.09;5071225;28;20202;-62
2023/09/27 04:02:54;;;;;;;8.70;7.90;;;;;;;11.67;100.00;97451.78;5075973;28;20222;-57
2023/09/27 04:05:25;;;;;;;8.07;7.47;;;;;;;11.67;100.00;97443.81;5027522;28;20800;-61
2023/09/27 04:07:53;;;;;;;8.03;7.47;;;;;;;11.70;100.00;97452.22;5063658;28;20807;-61
2023/09/27 04:10:20;;;;;;;8.20;7.60;;;;;;;11.68;100.00;97448.13;5071172;28;20712;-63
2023/09/27 04:12:48;;;;;;;8.13;7.53;;;;;;;11.71;100.00;97453.06;5073821;28;20206;-62
2023/09/27 04:15:16;;;;;;;8.63;7.93;;;;;;;11.72;100.00;97460.81;5033976;28;20210;-60
2023/09/27 04:17:45;;;;;;;8.80;8.20;;;;;;;11.66;100.00;97461.56;5066476;28;20234;-60
2023/09/27 04:20:16;;;;;;;9.17;8.47;;;;;;;11.61;100.00;97455.97;5031765;28;21010;-59
2023/09/27 04:22:45;;;;;;;8.17;7.57;;;;;;;11.64;100.00;97460.91;5057629;28;20217;-63
2023/09/27 04:25:13;;;;;;;7.57;7.07;;;;;;;11.71;100.00;97464.47;5015579;28;20341;-62
2023/09/27 04:27:42;;;;;;;7.53;7.00;;;;;;;11.72;100.00;97473.28;5031949;28;20233;-62
2023/09/27 04:30:13;;;;;;;6.70;6.20;;;;;;;11.66;100.00;97474.81;5030827;28;21188;-60
2023/09/27 04:32:42;;;;;;;7.30;6.80;;;;;;;11.71;100.00;97471.63;5060382;28;20222;-62
2023/09/27 04:35:13;;;;;;;7.03;6.50;;;;;;;11.63;100.00;97482.34;5061682;28;20211;-60
2023/09/27 04:37:41;;;;;;;9.00;8.07;;;;;;;11.54;100.00;97484.25;5062921;28;20305;-62
2023/09/27 04:40:11;;;;;;;7.83;7.30;;;;;;;11.57;100.00;97478.59;5034866;28;20587;-64
2023/09/27 04:42:39;;;;;;;7.90;7.37;;;;;;;11.66;100.00;97481.97;5058334;28;20197;-61
2023/09/27 04:45:08;;;;;;;8.40;7.80;;;;;;;11.68;100.00;97479.97;5072284;28;20213;-61
2023/09/27 04:47:35;;;;;;;9.33;8.63;;;;;;;11.71;100.00;97477.75;5071937;28;20257;-61
2023/09/27 04:50:06;;;;;;;8.10;7.60;;;;;;;11.76;100.00;97479.06;5074231;28;20202;-62
2023/09/27 04:52:35;;;;;;;8.00;7.40;;;;;;;11.72;100.00;97482.03;5070775;28;20203;-60
2023/09/27 04:55:04;;;;;;;7.90;7.33;;;;;;;11.69;100.00;97477.09;5075432;28;20243;-61
2023/09/27 04:57:32;;;;;;;7.50;7.00;;;;;;;11.76;100.00;97493.13;5078778;28;20214;-61
2023/09/27 05:00:00;;;;;;;8.07;7.47;;;;;;;11.79;100.00;97484.81;5038721;28;21030;-60
2023/09/27 05:02:28;;;;;;;8.90;8.17;;;;;;;11.83;100.00;97488.72;5013626;28;20294;-61
2023/09/27 05:04:56;;;;;;;7.93;7.33;;;;;;;11.83;100.00;97482.63;5076515;28;20953;-61
2023/09/27 05:07:23;;;;;;;8.50;7.77;;;;;;;11.85;100.00;97491.22;5068042;28;20230;-61
2023/09/27 05:09:53;;;;;;;7.67;7.17;;;;;;;11.84;100.00;97492.22;5068571;28;20214;-62
2023/09/27 05:12:20;;;;;;;8.20;7.60;;;;;;;11.83;100.00;97494.03;5074116;28;20206;-62
2023/09/27 05:14:48;;;;;;;10.60;7.93;;;;;;;11.82;100.00;97487.09;5076519;28;20242;-61
2023/09/27 05:17:16;;;;;;;7.47;6.77;;;;;;;11.81;100.00;97482.78;5074309;28;20612;-60
2023/09/27 05:19:44;;;;;;;8.63;8.00;;;;;;;11.79;100.00;97482.16;5077515;28;20195;-59
2023/09/27 05:22:14;;;;;;;8.30;7.70;;;;;;;11.78;100.00;97480.50;5057416;28;20204;-62
2023/09/27 05:24:42;;;;;;;7.93;7.23;;;;;;;11.75;100.00;97488.84;5070152;28;20210;-62
2023/09/27 05:27:10;;;;;;;8.20;7.43;;;;;;;11.74;100.00;97489.84;5073849;28;20614;-60
2023/09/27 05:29:38;;;;;;;7.27;6.77;;;;;;;11.65;100.00;97494.41;5077093;28;20766;-59
2023/09/27 05:32:06;;;;;;;8.30;7.60;;;;;;;11.62;100.00;97489.47;4976198;28;20571;-60
2023/09/27 05:34:34;;;;;;;7.80;7.30;;;;;;;11.57;100.00;97490.03;5072158;28;20613;-62
2023/09/27 05:37:02;;;;;;;8.53;7.93;;;;;;;11.66;100.00;97488.09;5069972;28;20710;-59
2023/09/27 05:39:30;;;;;;;9.30;8.07;;;;;;;11.70;100.00;97494.69;5071708;28;20221;-60
2023/09/27 05:41:57;;;;;;;8.33;7.73;;;;;;;11.74;100.00;97500.47;5070780;28;20267;-62
2023/09/27 05:44:26;;;;;;;20.43;9.97;;;;;;;11.48;100.00;97511.53;5079031;28;20247;-60
2023/09/27 05:46:56;;;;;;;7.83;7.33;;;;;;;11.57;100.00;97508.63;5069327;28;20330;-60
2023/09/27 05:49:25;;;;;;;8.20;7.60;;;;;;;11.76;100.00;97502.94;5078915;28;20248;-59
2023/09/27 05:51:53;;;;;;;8.90;8.20;;;;;;;11.78;100.00;97507.03;5069931;28;20206;-60
2023/09/27 05:54:21;;;;;;;8.47;7.87;;;;;;;11.77;100.00;97510.72;5076511;28;20206;-60
2023/09/27 05:56:51;;;;;;;7.93;7.43;;;;;;;11.76;100.00;97511.72;5071531;28;20253;-58
2023/09/27 05:59:19;;;;;;;8.77;7.93;;;;;;;11.62;100.00;97515.19;5063481;28;20226;-59
2023/09/27 06:01:48;;;;;;;8.10;7.60;;;;;;;11.83;100.00;97517.94;5054800;28;20202;-60
2023/09/27 06:04:17;;;;;;;9.17;8.37;;;;;;;11.74;100.00;97513.72;5073321;28;20212;-60
2023/09/27 06:06:45;;;;;;;8.87;8.03;;;;;;;11.68;100.00;97520.59;4963443;28;20214;-56
2023/09/27 06:09:13;;;;;;;9.37;8.40;;;;;;;11.65;100.00;97522.81;5076680;28;20218;-61
2023/09/27 06:11:41;;;;;;;9.17;8.47;;;;;;;11.79;100.00;97529.13;5071420;28;20206;-57
2023/09/27 06:14:10;;;;;;;9.27;8.30;;;;;;;11.86;100.00;97530.03;5076236;28;20209;-60
2023/09/27 06:16:38;;;;;;;8.17;7.57;;;;;;;11.88;100.00;97528.81;5069624;28;20202;-59
2023/09/27 06:19:09;;;;;;;9.10;8.30;;;;;;;11.92;100.00;97526.63;5072964;28;20202;-62
2023/09/27 06:21:37;;;;;;;9.00;8.20;;;;;;;12.08;100.00;97536.28;5068152;28;20208;-61
2023/09/27 06:24:06;;;;;;;9.73;8.83;;;;;;;12.14;100.00;97529.41;5074419;28;20653;-60
2023/09/27 06:26:34;;;;;;;8.27;7.63;;;;;;;12.28;100.00;97527.72;5070984;28;20232;-60
2023/09/27 06:29:02;;;;;;;9.20;8.50;;;;;;;12.43;100.00;97523.19;5074709;28;20214;-59
2023/09/27 06:31:30;;;;;;;8.33;7.63;;;;;;;12.51;100.00;97529.41;5073875;28;20209;-60
2023/09/27 06:33:58;;;;;;;8.40;7.70;;;;;;;12.68;100.00;97525.47;5078605;28;20796;-60
2023/09/27 06:36:29;;;;;;;8.40;7.80;;;;;;;12.83;100.00;97528.09;5070688;28;20289;-58
2023/09/27 06:38:57;;;;;;;8.90;8.20;;;;;;;12.88;100.00;97525.72;5073269;28;20222;-60
2023/09/27 06:41:25;;;;;;;8.83;8.13;;;;;;;12.97;100.00;97526.38;4963321;28;20307;-60
2023/09/27 06:43:53;;;;;;;10.27;9.47;;;;;;;12.98;100.00;97528.03;5089030;28;20217;-64
2023/09/27 06:46:22;;;;;;;10.10;9.27;;;;;;;12.96;100.00;97529.25;5079938;28;20211;-57
2023/09/27 06:48:54;;;;;;;7.83;7.30;;;;;;;13.11;100.00;97526.50;5080752;28;20349;-62
2023/09/27 06:51:22;;;;;;;9.10;8.40;;;;;;;12.81;100.00;97529.31;5079603;28;20396;-61
2023/09/27 06:53:52;;;;;;;9.10;8.13;;;;;;;12.92;100.00;97534.13;5076341;28;20221;-62
2023/09/27 06:56:20;;;;;;;9.00;8.20;;;;;;;13.12;100.00;97533.47;5061262;28;20264;-60
2023/09/27 06:58:48;;;;;;;8.93;8.13;;;;;;;13.07;100.00;97554.50;5055581;28;20249;-59
2023/09/27 07:01:16;;;;;;;8.70;7.90;;;;;;;13.34;100.00;97557.38;5064622;28;20332;-62
2023/09/27 07:03:44;;;;;;;9.03;8.43;;;;;;;13.39;100.00;97549.63;5054915;28;20290;-62
2023/09/27 07:06:12;;;;;;;8.37;7.67;;;;;;;13.52;100.00;97546.28;5053768;28;20427;-61
2023/09/27 07:08:40;;;;;;;9.40;8.70;;;;;;;13.59;100.00;97557.81;5073685;28;20362;-58
2023/09/27 07:11:10;;;;;;;8.97;8.37;;;;;;;13.51;100.00;97550.81;5072629;28;20210;-58
2023/09/27 07:13:38;;;;;;;9.07;8.27;;;;;;;13.56;100.00;97556.38;5067815;28;21432;-60
2023/09/27 07:16:20;;;;;;;9.80;9.10;;;;;;;13.80;100.00;97554.25;4967157;28;20293;-60
2023/09/27 07:18:49;;;;;;;9.70;8.97;;;;;;;13.88;100.00;97562.13;5073905;28;20772;-60
2023/09/27 07:21:19;;;;;;;9.87;9.10;;;;;;;13.83;100.00;97561.03;5069709;28;20677;-61
2023/09/27 07:23:49;;;;;;;8.93;8.23;;;;;;;13.87;100.00;97560.47;5072786;28;20202;-61
2023/09/27 07:26:18;;;;;;;8.87;8.17;;;;;;;14.06;100.00;97552.78;5072657;28;20202;-60
2023/09/27 07:28:46;;;;;;;9.30;8.70;;;;;;;14.24;100.00;97556.75;5070509;28;20237;-61
2023/09/27 07:31:15;;;;;;;9.60;8.80;;;;;;;14.41;100.00;97567.91;5070515;28;22346;-61
2023/09/27 07:33:44;;;;;;;8.83;8.23;;;;;;;14.31;100.00;97563.75;5071384;28;20256;-60
2023/09/27 07:36:14;;;;;;;8.80;8.20;;;;;;;14.38;100.00;97558.44;5062963;28;20234;-61
2023/09/27 07:38:42;;;;;;;10.07;9.20;;;;;;;14.59;100.00;97562.81;5071737;28;20222;-59
2023/09/27 07:41:10;;;;;;;10.30;9.40;;;;;;;14.47;100.00;97562.56;5072853;28;20280;-61
2023/09/27 07:43:39;;;;;;;9.57;8.87;;;;;;;14.66;100.00;97568.19;5061852;28;20203;-58
2023/09/27 07:46:07;;;;;;;9.37;8.67;;;;;;;14.61;100.00;97562.66;4970017;28;20225;-59
2023/09/27 07:48:39;;;;;;;9.10;8.40;;;;;;;14.81;100.00;97561.88;5071481;28;20320;-62
2023/09/27 07:51:11;;;;;;;10.13;9.33;;;;;;;15.02;100.00;97568.91;5068805;28;20210;-60
2023/09/27 07:53:38;;;;;;;9.83;8.87;;;;;;;15.22;100.00;97566.25;5069046;28;20209;-60
2023/09/27 07:56:09;;;;;;;9.40;8.60;;;;;;;15.40;100.00;97565.66;5066017;28;20684;-59
2023/09/27 07:58:41;;;;;;;10.53;9.57;;;;;;;15.48;100.00;97560.09;5077848;28;20217;-62
2023/09/27 08:01:09;;;;;;;9.30;8.60;;;;;;;15.53;100.00;97554.13;5072696;28;20241;-61
2023/09/27 08:03:38;;;;;;;9.47;8.77;;;;;;;15.54;100.00;97565.66;5074645;28;20207;-60
2023/09/27 08:06:07;;;;;;;9.30;8.60;;;;;;;15.62;100.00;97568.13;5063583;28;20230;-60
2023/09/27 08:08:35;;;;;;;10.13;9.33;;;;;;;15.81;100.00;97574.47;5057685;28;20226;-61
2023/09/27 08:11:03;;;;;;;11.13;10.20;;;;;;;15.74;100.00;97573.66;5054806;28;20418;-57
2023/09/27 08:13:31;;;;;;;10.23;9.37;;;;;;;15.50;100.00;97570.56;5073783;28;20193;-63
2023/09/27 08:16:03;;;;;;;10.47;9.67;;;;;;;15.59;100.00;97573.88;4963208;28;20240;-60
2023/09/27 08:18:31;;;;;;;9.37;8.67;;;;;;;15.61;100.00;97574.47;5075735;28;20302;-60
2023/09/27 08:20:59;;;;;;;10.83;9.83;;;;;;;15.47;100.00;97566.47;5071116;28;20194;-57
2023/09/27 08:23:26;;;;;;;9.40;8.70;;;;;;;15.72;100.00;97565.84;5072971;28;20210;-62
2023/09/27 08:25:55;;;;;;;10.20;9.40;;;;;;;15.95;100.00;97561.09;5070268;28;20235;-62
2023/09/27 08:28:23;;;;;;;10.63;9.83;;;;;;;16.25;100.00;97561.41;5078236;28;20217;-61
2023/09/27 08:30:51;;;;;;;10.87;10.03;;;;;;;16.47;100.00;97558.44;5073673;28;20408;-61
2023/09/27 08:33:21;;;;;;;10.47;9.60;;;;;;;16.62;100.00;97553.63;5076269;28;20204;-57
2023/09/27 08:35:51;;;;;;;11.67;10.67;;;;;;;16.58;100.00;97549.75;5067164;28;20202;-61
2023/09/27 08:38:18;;;;;;;10.50;9.80;;;;;;;16.77;100.00;97539.97;5079713;28;20386;-59
2023/09/27 08:40:47;;;;;;;11.27;10.33;;;;;;;16.97;100.00;97541.72;5074254;28;20293;-60
2023/09/27 08:43:15;;;;;;;11.10;10.20;;;;;;;17.24;100.00;97544.22;5081402;28;20615;-58
2023/09/27 08:45:45;;;;;;;10.17;9.37;;;;;;;17.40;100.00;97542.84;5078580;28;20259;-59
2023/09/27 08:48:18;;;;;;;11.93;11.03;;;;;;;17.26;100.00;97539.47;5077902;28;20238;-61
2023/09/27 08:50:49;;;;;;;13.17;12.07;;;;;;;17.39;100.00;97533.16;4960626;28;21700;-62
2023/09/27 08:53:17;;;;;;;10.63;9.63;;;;;;;17.56;100.00;97532.63;5076154;28;20217;-61
2023/09/27 08:55:48;;;;;;;13.03;11.90;;;;;;;17.42;100.00;97521.22;5071287;28;20225;-62
2023/09/27 08:58:20;;;;;;;10.23;9.43;;;;;;;17.35;100.00;97518.59;5080838;28;20253;-61
2023/09/27 09:00:48;;;;;;;9.90;9.20;;;;;;;17.31;100.00;97518.22;5071961;28;20226;-61
2023/09/27 09:03:16;;;;;;;10.00;9.30;;;;;;;17.46;100.00;97517.06;5063756;28;20281;-61
2023/09/27 09:05:45;;;;;;;10.60;9.80;;;;;;;17.86;100.00;97516.66;5071192;28;20813;-60
2023/09/27 09:08:14;;;;;;;10.03;9.23;;;;;;;17.72;100.00;97509.81;5071407;28;20253;-58
2023/09/27 09:10:47;;;;;;;10.37;9.57;;;;;;;17.93;100.00;97506.66;5071924;28;20219;-59
2023/09/27 09:13:15;;;;;;;9.70;9.00;;;;;;;17.86;100.00;97510.50;5076837;28;20635;-63
2023/09/27 09:15:47;;;;;;;11.17;10.37;;;;;;;17.89;100.00;97518.06;5059941;28;20684;-60
2023/09/27 09:18:28;;;;;;;11.43;10.53;;;;;;;17.95;100.00;97514.50;5063144;28;20249;-58
2023/09/27 09:21:08;;;;;;;11.30;10.50;;;;;;;18.25;100.00;97518.31;5056548;28;20195;-60
2023/09/27 09:23:38;;;;;;;11.97;10.77;;;;;;;18.17;100.00;97520.25;5063717;28;20569;-61
2023/09/27 09:26:09;;;;;;;10.23;9.33;;;;;;;18.70;100.00;97519.78;4961444;28;20926;-60
2023/09/27 09:28:55;;;;;;;10.93;10.03;;;;;;;18.63;100.00;97515.34;5076976;28;20226;-61
2023/09/27 09:31:24;;;;;;;10.80;9.70;;;;;;;18.27;100.00;97510.84;5072839;28;20218;-60
2023/09/27 09:34:03;;;;;;;10.33;9.43;;;;;;;18.62;100.00;97507.50;5076943;28;20209;-60
2023/09/27 09:36:31;;;;;;;10.30;9.60;;;;;;;18.93;100.00;97509.09;5073576;28;20222;-60
2023/09/27 09:39:13;;;;;;;11.30;10.43;;;;;;;18.63;100.00;97495.72;5070640;28;20293;-60
2023/09/27 09:41:45;;;;;;;11.30;10.50;;;;;;;18.16;100.00;97497.16;5072511;28;20202;-62
2023/09/27 09:44:19;;;;;;;11.40;10.17;;;;;;;18.43;100.00;97498.69;5079830;28;20211;-61
2023/09/27 09:46:47;;;;;;;10.77;10.07;;;;;;;18.53;100.00;97498.94;5073124;28;20206;-60
2023/09/27 09:49:16;;;;;;;10.47;9.63;;;;;;;18.53;100.00;97509.69;5076771;28;21307;-62
2023/09/27 09:51:47;;;;;;;10.83;9.97;;;;;;;18.40;100.00;97501.81;5064057;28;20293;-58
2023/09/27 09:54:26;;;;;;;9.50;8.80;;;;;;;18.55;100.00;97509.47;5059944;28;20211;-60
2023/09/27 09:56:57;;;;;;;12.20;11.10;;;;;;;18.63;100.00;97495.72;5052997;28;20291;-59
2023/09/27 09:59:53;;;;;;;9.97;9.27;;;;;;;19.12;100.00;97500.19;5059408;28;20687;-60
2023/09/27 10:02:24;;;;;;;10.80;9.73;;;;;;;18.98;100.00;97492.34;4999093;28;20217;-61
2023/09/27 10:04:55;;;;;;;10.80;9.90;;;;;;;18.83;100.00;97494.63;5076730;28;20221;-60
2023/09/27 10:07:24;;;;;;;11.23;10.17;;;;;;;19.06;100.00;97492.00;5069198;28;20851;-57
2023/09/27 10:09:54;;;;;;;10.20;9.43;;;;;;;18.92;100.00;97487.88;5074617;28;20287;-61
2023/09/27 10:12:22;;;;;;;10.53;9.63;;;;;;;19.18;100.00;97488.53;5062888;28;20691;-56
2023/09/27 10:14:51;;;;;;;10.43;9.67;;;;;;;18.96;100.00;97472.94;5079171;28;20793;-59
2023/09/27 10:17:23;;;;;;;11.10;10.20;;;;;;;19.00;100.00;97467.97;5070585;28;20230;-57
2023/09/27 10:20:05;;;;;;;10.17;9.17;;;;;;;19.38;100.00;97469.38;5059606;28;20199;-61
2023/09/27 10:22:33;;;;;;;10.90;10.20;;;;;;;19.19;100.00;97468.69;5072112;28;20359;-59
2023/09/27 10:25:03;;;;;;;12.10;11.00;;;;;;;19.13;100.00;97459.69;5073819;28;20194;-60
2023/09/27 10:28:04;;;;;;;10.60;9.50;;;;;;;19.61;100.00;97459.66;5070285;28;20301;-60
2023/09/27 10:31:05;;;;;;;10.40;9.57;;;;;;;19.71;100.00;97451.84;5074293;28;20385;-60
2023/09/27 10:33:33;;;;;;;10.97;10.17;;;;;;;19.81;100.00;97440.47;5077536;28;20199;-62
2023/09/27 10:36:27;;;;;;;10.00;9.30;;;;;;;20.29;100.00;97441.16;4945763;28;20693;-60
2023/09/27 10:39:02;;;;;;;11.40;10.43;;;;;;;20.25;100.00;97440.81;5077921;28;20856;-59
2023/09/27 10:41:50;;;;;;;12.40;11.00;;;;;;;20.37;100.00;97421.13;5072063;28;20277;-59
2023/09/27 10:44:29;;;;;;;12.97;10.20;;;;;;;20.56;100.00;97431.66;5076267;28;20202;-61
2023/09/27 10:46:57;;;;;;;11.33;10.33;;;;;;;20.44;100.00;97418.25;5072446;28;20887;-57
2023/09/27 10:49:26;;;;;;;10.93;10.13;;;;;;;20.44;100.00;97419.09;5077034;28;20203;-61
2023/09/27 10:51:54;;;;;;;10.27;9.33;;;;;;;20.66;100.00;97421.09;5078734;28;20225;-61
2023/09/27 10:54:34;;;;;;;11.23;10.13;;;;;;;20.59;100.00;97418.56;5076756;28;20198;-61
2023/09/27 10:57:04;;;;;;;9.23;8.40;;;;;;;20.72;100.00;97417.41;5072805;28;20286;-60
2023/09/27 10:59:32;;;;;;;11.13;10.03;;;;;;;20.87;100.00;97407.97;5079154;28;20676;-57
2023/09/27 11:02:00;;;;;;;15.07;10.50;;;;;;;20.97;100.00;97405.44;5068752;28;20195;-57
2023/09/27 11:04:27;;;;;;;12.77;9.47;;;;;;;21.01;100.00;97405.78;5077194;28;20199;-60
2023/09/27 11:06:56;;;;;;;10.77;9.97;;;;;;;20.84;100.00;97389.63;4961984;28;20233;-61
2023/09/27 11:09:24;;;;;;;10.43;9.60;;;;;;;20.71;100.00;97404.19;5073809;28;20198;-61
2023/09/27 11:11:53;;;;;;;11.57;10.37;;;;;;;20.80;100.00;97408.13;5054478;28;20221;-57
2023/09/27 11:14:31;;;;;;;14.57;10.53;;;;;;;20.62;100.00;97398.38;5071662;28;20210;-56
2023/09/27 11:17:15;;;;;;;10.87;9.93;;;;;;;20.71;100.00;97401.50;5065787;28;20229;-61
2023/09/27 11:19:43;;;;;;;12.13;11.03;;;;;;;20.69;100.00;97399.06;5072143;28;20198;-59
2023/09/27 11:22:10;;;;;;;13.47;12.47;;;;;;;20.54;100.00;97399.63;5070066;28;20219;-59
2023/09/27 11:24:40;;;;;;;14.80;13.33;;;;;;;20.65;100.00;97393.34;5072434;28;20387;-61
2023/09/27 11:27:08;;;;;;;11.10;9.97;;;;;;;20.91;100.00;97391.09;5021212;28;20886;-56
2023/09/27 11:29:37;;;;;;;9.17;8.47;;;;;;;21.24;100.00;97399.38;5076643;28;20758;-61